Time;durP1;ratioP1;P1;durP2;ratioP2;P2;SDS_P1;SDS_P2;PMS_P1;PMS_P2;Temp;Humidity;BMP_temperature;BMP_pressure;BME280_temperature;BME280_humidity;BME280_pressure;Samples;Min_cycle;Max_cycle;Signal;HPM_P1;HPM_P2
2022/11/14 00:00:37;;;;;;;93.57;66.97;;;;;;;;;;5079637;28;20328;-73
2022/11/14 00:03:04;;;;;;;94.15;65.95;;;;;;;;;;5077946;28;20081;-76
2022/11/14 00:05:29;;;;;;;85.10;60.70;;;;;;;;;;5068398;28;20027;-74
2022/11/14 00:07:55;;;;;;;98.55;62.90;;;;;;;;;;5078854;28;20047;-72
2022/11/14 00:10:20;;;;;;;83.70;60.58;;;;;;;;;;5080343;28;20114;-74
2022/11/14 00:12:45;;;;;;;105.47;78.13;;;;;;;;;;5080487;28;20066;-72
2022/11/14 00:15:11;;;;;;;101.30;71.93;;;;;;;;;;5077425;28;20031;-74
2022/11/14 00:17:37;;;;;;;82.90;61.30;;;;;;;;;;5078662;28;20131;-74
2022/11/14 00:20:03;;;;;;;108.60;77.30;;;;;;;;;;5069576;28;20020;-75
2022/11/14 00:22:28;;;;;;;99.55;76.40;;;;;;;;;;5068180;28;20416;-75
2022/11/14 00:24:53;;;;;;;88.28;73.65;;;;;;;;;;5069623;28;20059;-75
2022/11/14 00:27:19;;;;;;;71.18;59.88;;;;;;;;;;5078646;28;20475;-73
2022/11/14 00:29:44;;;;;;;71.90;58.90;;;;;;;;;;5081212;28;20409;-73
2022/11/14 00:32:09;;;;;;;84.35;64.60;;;;;;;;;;5061243;28;20024;-73
2022/11/14 00:34:35;;;;;;;73.15;59.35;;;;;;;;;;5073248;28;20093;-73
2022/11/14 00:37:00;;;;;;;77.97;59.53;;;;;;;;;;5069165;28;20024;-71
2022/11/14 00:39:26;;;;;;;77.18;59.40;;;;;;;;;;5080849;28;20451;-72
2022/11/14 00:41:51;;;;;;;111.35;78.47;;;;;;;;;;5081780;28;20028;-74
2022/11/14 00:44:16;;;;;;;166.23;112.45;;;;;;;;;;5079535;28;20032;-74
2022/11/14 00:46:42;;;;;;;151.82;107.28;;;;;;;;;;5079115;28;20035;-73
2022/11/14 00:49:07;;;;;;;151.55;103.07;;;;;;;;;;5078103;28;20101;-75
2022/11/14 00:51:32;;;;;;;135.38;94.75;;;;;;;;;;5080246;28;20032;-74
2022/11/14 00:53:58;;;;;;;91.78;68.25;;;;;;;;;;5079728;28;20032;-73
2022/11/14 00:56:23;;;;;;;81.00;58.05;;;;;;;;;;5072809;28;20150;-73
2022/11/14 00:58:48;;;;;;;58.38;43.55;;;;;;;;;;5076641;28;20016;-72
2022/11/14 01:01:14;;;;;;;55.30;43.50;;;;;;;;;;5080001;28;20077;-72
2022/11/14 01:03:39;;;;;;;64.85;48.13;;;;;;;;;;5079282;28;20094;-72
2022/11/14 01:06:06;;;;;;;74.15;54.42;;;;;;;;;;5079172;28;20032;-72
2022/11/14 01:08:31;;;;;;;78.32;55.55;;;;;;;;;;5079871;28;20035;-73
2022/11/14 01:10:58;;;;;;;66.60;50.72;;;;;;;;;;5075815;28;20028;-72
2022/11/14 01:13:23;;;;;;;62.88;48.60;;;;;;;;;;5073913;28;20024;-72
2022/11/14 01:15:48;;;;;;;66.63;48.28;;;;;;;;;;5079547;28;20085;-73
2022/11/14 01:18:15;;;;;;;66.70;49.28;;;;;;;;;;5080816;28;20052;-73
2022/11/14 01:20:41;;;;;;;60.03;46.47;;;;;;;;;;5080177;28;20028;-72
2022/11/14 01:23:10;;;;;;;61.17;47.65;;;;;;;;;;5078328;28;20337;-73
2022/11/14 01:25:36;;;;;;;57.10;41.67;;;;;;;;;;5077885;28;20031;-73
2022/11/14 01:28:04;;;;;;;58.78;43.70;;;;;;;;;;5079217;28;20055;-75
2022/11/14 01:30:30;;;;;;;49.60;39.78;;;;;;;;;;5080180;28;20031;-72
2022/11/14 01:32:55;;;;;;;51.30;40.08;;;;;;;;;;5078461;28;20034;-72
2022/11/14 01:35:20;;;;;;;55.05;39.15;;;;;;;;;;5070419;28;20035;-73
2022/11/14 01:37:46;;;;;;;56.47;42.40;;;;;;;;;;5079105;28;20032;-77
2022/11/14 01:40:11;;;;;;;71.15;49.60;;;;;;;;;;5080227;28;20440;-73
2022/11/14 01:42:36;;;;;;;68.53;48.80;;;;;;;;;;5080151;28;20443;-73
2022/11/14 01:45:22;;;;;;;62.33;43.78;;;;;;;;;;5078617;28;20125;-74
2022/11/14 01:47:47;;;;;;;67.53;47.40;;;;;;;;;;5078055;28;20035;-74
2022/11/14 01:50:13;;;;;;;83.65;59.95;;;;;;;;;;5078108;28;20020;-73
2022/11/14 01:52:39;;;;;;;81.40;53.15;;;;;;;;;;5079532;28;20058;-72
2022/11/14 01:55:06;;;;;;;108.15;54.42;;;;;;;;;;5071618;28;20372;-74
2022/11/14 01:57:34;;;;;;;84.43;53.35;;;;;;;;;;5056314;28;20031;-72
2022/11/14 02:00:01;;;;;;;111.95;61.67;;;;;;;;;;5080115;28;20443;-74
2022/11/14 02:02:26;;;;;;;101.55;62.30;;;;;;;;;;5077925;28;20040;-73
2022/11/14 02:04:56;;;;;;;115.97;73.68;;;;;;;;;;5079239;28;20085;-72
2022/11/14 02:07:21;;;;;;;;;;;;;;;;;;5082517;28;20028;-72
2022/11/14 02:09:47;;;;;;;114.90;73.07;;;;;;;;;;5082499;28;20799;-71
2022/11/14 02:12:15;;;;;;;178.68;94.57;;;;;;;;;;5081181;28;20016;-72
2022/11/14 02:14:44;;;;;;;102.57;71.45;;;;;;;;;;5082112;28;20036;-73
2022/11/14 02:17:09;;;;;;;113.22;78.20;;;;;;;;;;5080838;28;20016;-72
2022/11/14 02:19:45;;;;;;;124.45;78.13;;;;;;;;;;5077195;28;20027;-75
2022/11/14 02:22:11;;;;;;;97.53;62.05;;;;;;;;;;5077519;28;20401;-71
2022/11/14 02:24:38;;;;;;;106.72;62.80;;;;;;;;;;5080759;28;21225;-72
2022/11/14 02:27:04;;;;;;;98.32;62.88;;;;;;;;;;5080819;28;20027;-74
2022/11/14 02:29:30;;;;;;;91.18;53.05;;;;;;;;;;5082551;28;20443;-72
2022/11/14 02:31:56;;;;;;;85.38;52.35;;;;;;;;;;5081112;28;20022;-73
2022/11/14 02:34:21;;;;;;;95.35;51.25;;;;;;;;;;5080681;28;20035;-71
2022/11/14 02:36:46;;;;;;;91.10;51.60;;;;;;;;;;5080040;28;20111;-72
2022/11/14 02:39:12;;;;;;;135.75;54.35;;;;;;;;;;5081666;28;20055;-75
2022/11/14 02:41:37;;;;;;;85.78;51.50;;;;;;;;;;5081368;28;20085;-74
2022/11/14 02:44:02;;;;;;;98.63;52.22;;;;;;;;;;5081999;28;20410;-73
2022/11/14 02:46:28;;;;;;;89.00;54.13;;;;;;;;;;5081944;28;20352;-73
2022/11/14 02:48:53;;;;;;;111.05;57.25;;;;;;;;;;5076121;28;20027;-73
2022/11/14 02:51:18;;;;;;;89.82;54.63;;;;;;;;;;5074112;28;20052;-72
2022/11/14 02:53:44;;;;;;;86.75;53.45;;;;;;;;;;5082251;28;20077;-73
2022/11/14 02:56:09;;;;;;;95.75;57.33;;;;;;;;;;5082291;28;20020;-76
2022/11/14 02:58:34;;;;;;;126.50;66.10;;;;;;;;;;5081989;28;20041;-71
2022/11/14 03:01:00;;;;;;;202.05;83.43;;;;;;;;;;5081248;28;20028;-71
2022/11/14 03:03:25;;;;;;;149.55;70.68;;;;;;;;;;5078816;28;20024;-72
2022/11/14 03:05:52;;;;;;;147.45;68.97;;;;;;;;;;5082538;28;20067;-72
2022/11/14 03:08:18;;;;;;;98.10;53.75;;;;;;;;;;5082839;28;20428;-73
2022/11/14 03:10:44;;;;;;;89.93;48.85;;;;;;;;;;5064852;28;20426;-74
2022/11/14 03:13:09;;;;;;;129.15;55.28;;;;;;;;;;5080966;28;20054;-72
2022/11/14 03:15:37;;;;;;;91.80;46.30;;;;;;;;;;5082607;28;20329;-73
2022/11/14 03:18:03;;;;;;;120.47;46.30;;;;;;;;;;5081254;28;20048;-72
2022/11/14 03:20:28;;;;;;;92.65;43.08;;;;;;;;;;5079028;28;20028;-72
2022/11/14 03:22:53;;;;;;;183.23;53.20;;;;;;;;;;5079512;28;20024;-72
2022/11/14 03:25:18;;;;;;;73.72;41.08;;;;;;;;;;5080746;28;20024;-73
2022/11/14 03:27:44;;;;;;;68.07;41.45;;;;;;;;;;5082084;28;20458;-72
2022/11/14 03:30:09;;;;;;;72.53;44.13;;;;;;;;;;5081669;28;20396;-73
2022/11/14 03:32:35;;;;;;;177.82;55.80;;;;;;;;;;5081436;28;20034;-74
2022/11/14 03:35:00;;;;;;;107.15;46.00;;;;;;;;;;5079891;28;20025;-73
2022/11/14 03:37:26;;;;;;;106.32;48.83;;;;;;;;;;5080067;28;20037;-72
2022/11/14 03:39:51;;;;;;;78.35;46.05;;;;;;;;;;5076848;28;20028;-73
2022/11/14 03:42:16;;;;;;;97.55;51.13;;;;;;;;;;5070972;28;20031;-73
2022/11/14 03:44:42;;;;;;;100.82;49.85;;;;;;;;;;5076612;28;20020;-72
2022/11/14 03:47:07;;;;;;;77.45;46.72;;;;;;;;;;5076761;28;20089;-73
2022/11/14 03:49:32;;;;;;;79.25;46.38;;;;;;;;;;5078736;28;20089;-72
2022/11/14 03:51:58;;;;;;;104.97;52.38;;;;;;;;;;5077797;28;20491;-73
2022/11/14 03:54:23;;;;;;;96.45;58.45;;;;;;;;;;5079522;28;20451;-74
2022/11/14 03:56:48;;;;;;;93.30;51.92;;;;;;;;;;5081422;28;20019;-72
2022/11/14 03:59:14;;;;;;;104.90;57.45;;;;;;;;;;5080154;28;20107;-76
2022/11/14 04:01:39;;;;;;;212.32;65.93;;;;;;;;;;5078691;28;20450;-73
2022/11/14 04:04:05;;;;;;;85.75;48.33;;;;;;;;;;5080955;28;20422;-72
2022/11/14 04:06:30;;;;;;;91.60;50.83;;;;;;;;;;5079807;28;20479;-73
2022/11/14 04:08:55;;;;;;;72.07;45.97;;;;;;;;;;5080228;28;20423;-72
2022/11/14 04:11:21;;;;;;;105.57;51.50;;;;;;;;;;5073922;28;20524;-72
2022/11/14 04:13:46;;;;;;;77.05;44.95;;;;;;;;;;5073425;28;20036;-72
2022/11/14 04:16:12;;;;;;;100.20;54.50;;;;;;;;;;5080207;28;21135;-72
2022/11/14 04:18:37;;;;;;;100.30;53.97;;;;;;;;;;5078489;28;20157;-72
2022/11/14 04:21:02;;;;;;;94.20;52.45;;;;;;;;;;5062554;28;20070;-71
2022/11/14 04:23:28;;;;;;;88.20;54.83;;;;;;;;;;5076407;28;20031;-74
2022/11/14 04:25:53;;;;;;;84.07;48.42;;;;;;;;;;5078658;28;20047;-72
2022/11/14 04:28:18;;;;;;;96.25;56.70;;;;;;;;;;5079708;28;20035;-72
2022/11/14 04:30:44;;;;;;;170.60;106.70;;;;;;;;;;5078779;28;20103;-75
2022/11/14 04:33:10;;;;;;;217.95;78.05;;;;;;;;;;5075451;28;20043;-72
2022/11/14 04:35:35;;;;;;;382.25;124.60;;;;;;;;;;5071358;28;20066;-71
2022/11/14 04:38:00;;;;;;;104.85;73.68;;;;;;;;;;5079000;28;20031;-77
2022/11/14 04:40:26;;;;;;;220.60;60.20;;;;;;;;;;5079895;28;20440;-71
2022/11/14 04:42:51;;;;;;;113.05;44.53;;;;;;;;;;5077889;28;20123;-72
2022/11/14 04:45:16;;;;;;;66.22;43.70;;;;;;;;;;5078098;28;20035;-71
2022/11/14 04:47:42;;;;;;;80.32;46.35;;;;;;;;;;5079010;28;20081;-74
2022/11/14 04:50:07;;;;;;;78.88;47.17;;;;;;;;;;5080379;28;20848;-72
2022/11/14 04:52:33;;;;;;;63.47;44.10;;;;;;;;;;5067637;28;20024;-73
2022/11/14 04:54:58;;;;;;;176.70;57.25;;;;;;;;;;5067242;28;20024;-72
2022/11/14 04:57:24;;;;;;;97.78;44.40;;;;;;;;;;5065066;28;20649;-72
2022/11/14 04:59:49;;;;;;;59.15;40.88;;;;;;;;;;5065805;28;20470;-72
2022/11/14 05:02:14;;;;;;;85.50;42.20;;;;;;;;;;5063783;28;20081;-72
2022/11/14 05:04:40;;;;;;;64.88;44.75;;;;;;;;;;5069879;28;20028;-72
2022/11/14 05:07:05;;;;;;;56.65;41.47;;;;;;;;;;5071872;28;20114;-71
2022/11/14 05:09:30;;;;;;;63.30;43.75;;;;;;;;;;5077179;28;20320;-72
2022/11/14 05:11:56;;;;;;;90.47;50.35;;;;;;;;;;5078158;28;20051;-76
2022/11/14 05:14:21;;;;;;;73.72;47.25;;;;;;;;;;5081339;28;20056;-73
2022/11/14 05:16:46;;;;;;;167.63;62.25;;;;;;;;;;5078817;28;20026;-71
2022/11/14 05:19:12;;;;;;;172.60;58.38;;;;;;;;;;5080516;28;20475;-74
2022/11/14 05:21:37;;;;;;;338.15;86.50;;;;;;;;;;5079427;28;20060;-72
2022/11/14 05:24:02;;;;;;;161.73;59.47;;;;;;;;;;5073931;28;20027;-72
2022/11/14 05:26:28;;;;;;;85.07;48.90;;;;;;;;;;5072286;28;20020;-72
2022/11/14 05:28:53;;;;;;;194.80;55.47;;;;;;;;;;5079950;28;20047;-72
2022/11/14 05:31:18;;;;;;;69.63;45.95;;;;;;;;;;5079349;28;20024;-72
2022/11/14 05:33:44;;;;;;;118.97;48.30;;;;;;;;;;5076245;28;20105;-71
2022/11/14 05:36:11;;;;;;;85.28;46.55;;;;;;;;;;5079620;28;20111;-74
2022/11/14 05:38:36;;;;;;;131.30;48.97;;;;;;;;;;5073843;28;20062;-72
2022/11/14 05:41:12;;;;;;;162.82;47.42;;;;;;;;;;5069162;28;20059;-74
2022/11/14 05:43:37;;;;;;;251.82;49.75;;;;;;;;;;5069719;28;20458;-74
2022/11/14 05:46:04;;;;;;;48.55;37.42;;;;;;;;;;5082916;28;20028;-72
2022/11/14 05:48:29;;;;;;;130.30;78.70;;;;;;;;;;5076973;28;20031;-73
2022/11/14 05:50:55;;;;;;;102.35;62.55;;;;;;;;;;5078813;28;20028;-73
2022/11/14 05:53:21;;;;;;;219.05;62.92;;;;;;;;;;5081545;28;20032;-72
2022/11/14 05:55:46;;;;;;;94.57;50.15;;;;;;;;;;5078248;28;20028;-73
2022/11/14 05:58:11;;;;;;;57.00;40.88;;;;;;;;;;5076979;28;20033;-72
2022/11/14 06:00:37;;;;;;;455.15;111.18;;;;;;;;;;5073232;28;20035;-75
2022/11/14 06:03:02;;;;;;;85.38;58.17;;;;;;;;;;5072929;28;20028;-72
2022/11/14 06:05:27;;;;;;;212.13;71.88;;;;;;;;;;5072404;28;20024;-72
2022/11/14 06:07:57;;;;;;;129.43;71.20;;;;;;;;;;5070534;28;20581;-74
2022/11/14 06:10:23;;;;;;;142.65;54.53;;;;;;;;;;5073912;28;20023;-74
2022/11/14 06:12:48;;;;;;;80.45;40.10;;;;;;;;;;5067170;28;20063;-76
2022/11/14 06:15:13;;;;;;;89.28;58.13;;;;;;;;;;5069631;28;20020;-73
2022/11/14 06:17:39;;;;;;;98.38;52.03;;;;;;;;;;5072108;28;20101;-76
2022/11/14 06:20:04;;;;;;;99.55;50.92;;;;;;;;;;5070327;28;20038;-76
2022/11/14 06:22:30;;;;;;;76.53;42.25;;;;;;;;;;5070605;28;20107;-73
2022/11/14 06:24:55;;;;;;;83.57;43.03;;;;;;;;;;5070931;28;20124;-73
2022/11/14 06:27:20;;;;;;;196.02;76.93;;;;;;;;;;5070533;28;20028;-77
2022/11/14 06:29:46;;;;;;;115.53;68.25;;;;;;;;;;5070706;28;20020;-75
2022/11/14 06:32:11;;;;;;;124.65;59.47;;;;;;;;;;5079556;28;20347;-75
2022/11/14 06:34:36;;;;;;;634.75;287.55;;;;;;;;;;5081681;28;20067;-73
2022/11/14 06:37:03;;;;;;;246.73;108.05;;;;;;;;;;5085277;28;20043;-75
2022/11/14 06:39:28;;;;;;;110.57;46.75;;;;;;;;;;5078918;28;20028;-75
2022/11/14 06:41:54;;;;;;;145.88;54.28;;;;;;;;;;5076310;28;20428;-75
2022/11/14 06:44:19;;;;;;;126.28;59.83;;;;;;;;;;5084072;28;20028;-74
2022/11/14 06:46:44;;;;;;;129.48;78.50;;;;;;;;;;5076116;28;20013;-73
2022/11/14 06:49:10;;;;;;;143.82;81.70;;;;;;;;;;5073079;28;20027;-75
2022/11/14 06:51:35;;;;;;;151.30;66.53;;;;;;;;;;5080790;28;20139;-75
2022/11/14 06:54:00;;;;;;;238.65;85.40;;;;;;;;;;5083550;28;20078;-76
2022/11/14 06:56:26;;;;;;;107.78;69.25;;;;;;;;;;5082201;28;20039;-75
2022/11/14 06:58:51;;;;;;;263.23;70.32;;;;;;;;;;5082175;28;20108;-73
2022/11/14 07:01:18;;;;;;;164.80;64.50;;;;;;;;;;5082717;28;20028;-74
2022/11/14 07:03:44;;;;;;;255.93;86.35;;;;;;;;;;5082100;28;20043;-72
2022/11/14 07:06:10;;;;;;;105.78;64.45;;;;;;;;;;5081126;28;20012;-72
2022/11/14 07:08:36;;;;;;;109.10;63.03;;;;;;;;;;5081689;28;20038;-74
2022/11/14 07:11:06;;;;;;;257.92;84.28;;;;;;;;;;5082088;28;20521;-75
2022/11/14 07:13:32;;;;;;;150.50;83.75;;;;;;;;;;5083853;28;20032;-73
2022/11/14 07:15:57;;;;;;;270.90;93.65;;;;;;;;;;5080212;28;20055;-72
2022/11/14 07:18:22;;;;;;;229.60;85.55;;;;;;;;;;5082605;28;20452;-72
2022/11/14 07:20:48;;;;;;;112.00;70.22;;;;;;;;;;5081191;28;20145;-73
2022/11/14 07:23:14;;;;;;;190.90;79.55;;;;;;;;;;5081249;28;20182;-72
2022/11/14 07:25:39;;;;;;;127.20;73.32;;;;;;;;;;5081729;28;20028;-73
2022/11/14 07:28:05;;;;;;;123.07;71.15;;;;;;;;;;5079791;28;20028;-75
2022/11/14 07:30:30;;;;;;;117.93;66.10;;;;;;;;;;5077888;28;20032;-73
2022/11/14 07:32:56;;;;;;;228.93;82.32;;;;;;;;;;5083329;28;20108;-72
2022/11/14 07:35:22;;;;;;;128.15;65.57;;;;;;;;;;5080480;28;20020;-73
2022/11/14 07:37:47;;;;;;;98.32;64.55;;;;;;;;;;5078564;28;20062;-73
2022/11/14 07:40:13;;;;;;;209.20;122.78;;;;;;;;;;5082419;28;20446;-72
2022/11/14 07:42:38;;;;;;;261.40;100.32;;;;;;;;;;5081076;28;20336;-72
2022/11/14 07:45:04;;;;;;;109.65;70.88;;;;;;;;;;5080231;28;20032;-72
2022/11/14 07:47:29;;;;;;;141.98;77.68;;;;;;;;;;5080083;28;20181;-72
2022/11/14 07:49:55;;;;;;;217.60;100.65;;;;;;;;;;5081912;28;20041;-74
2022/11/14 07:52:20;;;;;;;124.38;75.55;;;;;;;;;;5079680;28;20036;-75
2022/11/14 07:54:46;;;;;;;139.05;84.88;;;;;;;;;;5080147;28;20039;-73
2022/11/14 07:57:11;;;;;;;166.88;106.65;;;;;;;;;;5081615;28;20099;-72
2022/11/14 07:59:36;;;;;;;182.85;91.30;;;;;;;;;;5081630;28;20024;-72
2022/11/14 08:02:02;;;;;;;159.70;96.15;;;;;;;;;;5079574;28;20047;-72
2022/11/14 08:04:27;;;;;;;220.32;132.27;;;;;;;;;;5079768;28;20038;-73
2022/11/14 08:06:52;;;;;;;215.10;132.65;;;;;;;;;;5082829;28;20039;-72
2022/11/14 08:09:18;;;;;;;203.90;121.95;;;;;;;;;;5077144;28;20062;-74
2022/11/14 08:11:49;;;;;;;219.77;114.75;;;;;;;;;;5082312;28;20019;-73
2022/11/14 08:14:15;;;;;;;246.63;116.57;;;;;;;;;;5079679;28;20114;-75
2022/11/14 08:16:40;;;;;;;255.07;111.93;;;;;;;;;;5078970;28;20458;-73
2022/11/14 08:19:05;;;;;;;213.23;82.00;;;;;;;;;;5080886;28;20056;-73
2022/11/14 08:21:31;;;;;;;106.68;66.88;;;;;;;;;;5077495;28;20023;-73
2022/11/14 08:23:56;;;;;;;140.45;55.65;;;;;;;;;;5078769;28;20115;-73
2022/11/14 08:26:21;;;;;;;149.48;51.85;;;;;;;;;;5082002;28;20340;-72
2022/11/14 08:28:47;;;;;;;76.88;47.83;;;;;;;;;;5079130;28;20033;-73
2022/11/14 08:31:12;;;;;;;186.63;73.00;;;;;;;;;;5080345;28;20020;-72
2022/11/14 08:33:38;;;;;;;109.95;45.38;;;;;;;;;;5079587;28;20097;-73
2022/11/14 08:36:04;;;;;;;372.15;162.73;;;;;;;;;;5081456;28;20039;-72
2022/11/14 08:38:30;;;;;;;330.27;158.60;;;;;;;;;;5079683;28;20100;-75
2022/11/14 08:40:59;;;;;;;469.23;244.32;;;;;;;;;;5080059;28;20038;-72
2022/11/14 08:43:24;;;;;;;208.70;117.40;;;;;;;;;;5079576;28;20028;-73
2022/11/14 08:45:50;;;;;;;165.43;84.93;;;;;;;;;;5078811;28;20044;-74
2022/11/14 08:48:15;;;;;;;119.25;83.28;;;;;;;;;;5079665;28;20032;-74
2022/11/14 08:50:41;;;;;;;202.18;132.35;;;;;;;;;;5081897;28;20032;-74
2022/11/14 08:53:06;;;;;;;251.95;147.43;;;;;;;;;;5082394;28;20360;-73
2022/11/14 08:55:31;;;;;;;219.27;112.35;;;;;;;;;;5081395;28;20103;-72
2022/11/14 08:57:57;;;;;;;157.30;97.50;;;;;;;;;;5079322;28;20048;-73
2022/11/14 09:00:22;;;;;;;209.23;107.43;;;;;;;;;;5077001;28;20032;-73
2022/11/14 09:02:47;;;;;;;157.63;83.18;;;;;;;;;;5079814;28;20041;-73
2022/11/14 09:05:13;;;;;;;259.63;145.55;;;;;;;;;;5079708;28;20020;-72
2022/11/14 09:07:38;;;;;;;170.15;95.82;;;;;;;;;;5078467;28;20027;-72
2022/11/14 09:10:04;;;;;;;138.80;76.32;;;;;;;;;;5081025;28;20024;-76
2022/11/14 09:12:29;;;;;;;113.22;63.70;;;;;;;;;;5078931;28;20056;-73
2022/11/14 09:14:54;;;;;;;149.02;92.78;;;;;;;;;;5077857;28;20044;-76
2022/11/14 09:17:20;;;;;;;123.35;84.32;;;;;;;;;;5081617;28;20052;-73
2022/11/14 09:19:45;;;;;;;131.60;79.18;;;;;;;;;;5082462;28;20024;-73
2022/11/14 09:22:10;;;;;;;115.93;74.00;;;;;;;;;;5085768;28;20061;-72
2022/11/14 09:24:36;;;;;;;139.23;90.38;;;;;;;;;;5084277;28;20063;-73
2022/11/14 09:27:01;;;;;;;122.93;80.50;;;;;;;;;;5084901;28;20055;-72
2022/11/14 09:29:26;;;;;;;120.82;77.05;;;;;;;;;;5085422;28;20012;-73
2022/11/14 09:31:53;;;;;;;119.18;74.32;;;;;;;;;;5082085;28;20312;-74
2022/11/14 09:34:19;;;;;;;131.43;81.53;;;;;;;;;;5082924;28;20032;-73
2022/11/14 09:36:45;;;;;;;157.98;94.25;;;;;;;;;;5082717;28;20499;-73
2022/11/14 09:39:10;;;;;;;125.90;79.10;;;;;;;;;;5085820;28;20105;-72
2022/11/14 09:41:41;;;;;;;160.57;103.07;;;;;;;;;;5084582;28;20020;-73
2022/11/14 09:44:10;;;;;;;149.18;99.10;;;;;;;;;;5085191;28;20008;-72
2022/11/14 09:46:39;;;;;;;134.15;94.72;;;;;;;;;;5084527;28;20032;-73
2022/11/14 09:49:10;;;;;;;431.88;285.42;;;;;;;;;;5082510;28;20445;-73
2022/11/14 09:51:39;;;;;;;160.18;96.88;;;;;;;;;;5082809;28;20332;-72
2022/11/14 09:54:05;;;;;;;;;;;;;;;;;;5083345;28;20040;-75
2022/11/14 09:56:30;;;;;;;171.20;109.00;;;;;;;;;;5082403;28;19916;-73
2022/11/14 09:58:55;;;;;;;103.28;62.33;;;;;;;;;;5085675;28;20260;-72
2022/11/14 10:01:30;;;;;;;85.60;54.55;;;;;;;;;;5085790;28;20019;-73
2022/11/14 10:04:15;;;;;;;83.05;58.30;;;;;;;;;;5083451;28;20457;-72
2022/11/14 10:06:46;;;;;;;113.95;77.32;;;;;;;;;;5046994;28;20058;-73
2022/11/14 10:09:30;;;;;;;115.22;78.05;;;;;;;;;;5084152;28;20805;-73
2022/11/14 10:12:08;;;;;;;92.60;63.00;;;;;;;;;;5083435;28;20036;-74
2022/11/14 10:14:39;;;;;;;101.70;74.32;;;;;;;;;;5082796;28;20067;-73
2022/11/14 10:17:04;;;;;;;95.57;66.97;;;;;;;;;;5084032;28;20020;-72
2022/11/14 10:19:29;;;;;;;99.53;73.30;;;;;;;;;;5083396;28;20474;-73
2022/11/14 10:22:04;;;;;;;132.18;93.28;;;;;;;;;;5081930;28;20024;-74
2022/11/14 10:24:48;;;;;;;131.32;88.72;;;;;;;;;;5083061;28;20032;-76
2022/11/14 10:27:24;;;;;;;74.45;54.65;;;;;;;;;;5082520;28;20936;-73
2022/11/14 10:29:49;;;;;;;68.28;53.03;;;;;;;;;;5084336;28;20028;-73
2022/11/14 10:32:26;;;;;;;60.78;47.83;;;;;;;;;;5082313;28;20463;-75
2022/11/14 10:35:10;;;;;;;42.08;32.03;;;;;;;;;;5082915;28;20040;-72
2022/11/14 10:37:35;;;;;;;44.67;37.20;;;;;;;;;;5083926;28;20028;-73
2022/11/14 10:40:12;;;;;;;40.42;28.92;;;;;;;;;;5082036;28;21201;-74
2022/11/14 10:42:39;;;;;;;77.43;54.25;;;;;;;;;;5082380;28;20039;-72
2022/11/14 10:45:28;;;;;;;70.03;50.13;;;;;;;;;;5081309;28;20020;-75
2022/11/14 10:48:02;;;;;;;76.95;55.05;;;;;;;;;;5082696;28;20710;-72
2022/11/14 10:50:32;;;;;;;49.78;37.63;;;;;;;;;;5080693;28;20035;-74
2022/11/14 10:52:57;;;;;;;;;;;;;;;;;;5079153;28;20081;-73
2022/11/14 10:55:23;;;;;;;84.60;63.08;;;;;;;;;;5083137;28;19916;-72
2022/11/14 10:57:49;;;;;;;75.75;55.13;;;;;;;;;;5082723;28;20124;-73
2022/11/14 11:00:16;;;;;;;125.57;93.65;;;;;;;;;;5083758;28;20051;-72
2022/11/14 11:02:49;;;;;;;57.47;43.45;;;;;;;;;;5080913;28;20035;-73
2022/11/14 11:05:15;;;;;;;57.78;45.33;;;;;;;;;;5080386;28;20162;-74
2022/11/14 11:13:35;;;;;;;56.00;43.47;;;;;;;;;;5081715;28;20108;-73
2022/11/14 11:16:02;;;;;;;68.05;51.40;;;;;;;;;;5079813;28;20027;-72
2022/11/14 11:18:32;;;;;;;61.65;48.40;;;;;;;;;;5082581;28;20040;-72
2022/11/14 11:21:06;;;;;;;57.95;42.65;;;;;;;;;;5081757;28;20036;-72
2022/11/14 11:23:32;;;;;;;81.60;61.90;;;;;;;;;;5071109;28;20028;-72
2022/11/14 11:26:00;;;;;;;85.10;63.53;;;;;;;;;;5078303;28;20028;-73
2022/11/14 11:28:26;;;;;;;72.75;55.83;;;;;;;;;;5080256;28;20518;-73
2022/11/14 11:30:59;;;;;;;113.07;78.90;;;;;;;;;;5066077;28;20401;-73
2022/11/14 11:33:29;;;;;;;114.55;84.28;;;;;;;;;;5081690;28;20367;-71
2022/11/14 11:36:03;;;;;;;93.22;69.38;;;;;;;;;;5081225;28;20019;-72
2022/11/14 11:38:29;;;;;;;62.03;47.90;;;;;;;;;;5081691;28;20148;-76
2022/11/14 11:41:06;;;;;;;95.90;70.43;;;;;;;;;;5082695;28;20036;-73
2022/11/14 11:43:37;;;;;;;76.18;57.15;;;;;;;;;;5081164;28;20107;-74
2022/11/14 11:46:05;;;;;;;67.90;50.17;;;;;;;;;;5082709;28;20032;-76
2022/11/14 11:48:36;;;;;;;72.80;51.13;;;;;;;;;;5080765;28;20425;-73
2022/11/14 11:51:03;;;;;;;73.85;53.42;;;;;;;;;;5079990;28;20097;-74
2022/11/14 11:53:33;;;;;;;62.42;46.42;;;;;;;;;;5080907;28;20502;-73
2022/11/14 11:56:05;;;;;;;77.30;58.80;;;;;;;;;;5080516;28;20028;-73
2022/11/14 11:58:34;;;;;;;62.45;46.15;;;;;;;;;;5079379;28;20062;-75
2022/11/14 12:00:59;;;;;;;63.55;43.53;;;;;;;;;;5080584;28;20089;-74
2022/11/14 12:03:25;;;;;;;63.10;47.15;;;;;;;;;;5080711;28;20036;-74
2022/11/14 12:06:09;;;;;;;71.93;52.70;;;;;;;;;;5080939;28;20478;-75
2022/11/14 12:08:37;;;;;;;89.07;61.95;;;;;;;;;;5080540;28;20542;-73
2022/11/14 12:11:05;;;;;;;74.70;53.60;;;;;;;;;;5079651;28;20043;-73
2022/11/14 12:13:31;;;;;;;77.43;52.45;;;;;;;;;;5080564;28;20024;-73
2022/11/14 12:16:08;;;;;;;61.75;45.05;;;;;;;;;;5083122;28;20758;-72
2022/11/14 12:18:52;;;;;;;57.08;41.53;;;;;;;;;;5081400;28;20035;-73
2022/11/14 12:21:44;;;;;;;56.65;42.90;;;;;;;;;;5081912;28;20035;-73
2022/11/14 12:24:29;;;;;;;56.67;39.72;;;;;;;;;;5043979;28;20109;-73
2022/11/14 12:27:01;;;;;;;54.90;38.83;;;;;;;;;;5068182;28;20065;-73
2022/11/14 12:29:30;;;;;;;57.05;40.83;;;;;;;;;;5067127;28;20038;-73
2022/11/14 12:32:03;;;;;;;60.35;45.92;;;;;;;;;;5068166;28;20060;-72
2022/11/14 12:34:31;;;;;;;72.60;53.20;;;;;;;;;;5067618;28;20056;-75
2022/11/14 12:36:57;;;;;;;68.15;50.20;;;;;;;;;;5068874;28;20066;-72
2022/11/14 12:39:27;;;;;;;78.68;56.63;;;;;;;;;;5068362;28;20044;-72
2022/11/14 12:42:03;;;;;;;68.07;50.08;;;;;;;;;;5068079;28;20034;-73
2022/11/14 12:44:28;;;;;;;90.85;64.00;;;;;;;;;;5068085;28;20031;-72
2022/11/14 12:47:06;;;;;;;88.82;65.07;;;;;;;;;;5068878;28;20028;-73
2022/11/14 12:49:58;;;;;;;69.25;51.38;;;;;;;;;;5067422;28;20424;-72
2022/11/14 12:52:42;;;;;;;62.42;44.10;;;;;;;;;;5068636;28;20043;-71
2022/11/14 12:55:17;;;;;;;79.82;61.30;;;;;;;;;;5067420;28;20123;-74
2022/11/14 12:57:56;;;;;;;71.18;53.90;;;;;;;;;;5067513;28;20095;-75
2022/11/14 13:00:21;;;;;;;76.35;59.80;;;;;;;;;;5068251;28;20032;-75
2022/11/14 13:02:50;;;;;;;94.82;67.75;;;;;;;;;;5068243;28;20105;-72
2022/11/14 13:05:41;;;;;;;101.20;72.72;;;;;;;;;;5067971;28;20036;-76
2022/11/14 13:08:16;;;;;;;97.88;65.82;;;;;;;;;;5061422;28;20040;-74
2022/11/14 13:10:41;;;;;;;109.00;76.10;;;;;;;;;;5065207;28;20032;-75
2022/11/14 13:21:58;;;;;;;97.13;68.70;;;;;;;;;;5068165;28;20097;-72
2022/11/14 13:24:23;;;;;;;258.80;179.18;;;;;;;;;;5068419;28;20130;-73
2022/11/14 13:26:50;;;;;;;275.67;190.52;;;;;;;;;;5067951;28;20523;-74
2022/11/14 13:29:35;;;;;;;240.32;175.35;;;;;;;;;;5067326;28;20052;-73
2022/11/14 13:32:00;;;;;;;102.13;73.60;;;;;;;;;;5067529;28;20024;-73
2022/11/14 13:34:40;;;;;;;81.78;60.25;;;;;;;;;;5066924;28;20039;-74
2022/11/14 13:37:12;;;;;;;83.63;60.75;;;;;;;;;;5066997;28;20031;-73
2022/11/14 13:39:40;;;;;;;87.32;65.07;;;;;;;;;;5067587;28;20024;-73
2022/11/14 13:42:14;;;;;;;188.88;133.77;;;;;;;;;;5067985;28;20028;-72
2022/11/14 13:45:05;;;;;;;86.07;65.55;;;;;;;;;;5067593;28;20089;-72
2022/11/14 13:47:37;;;;;;;166.40;117.35;;;;;;;;;;5066404;28;20363;-75
2022/11/14 13:50:22;;;;;;;111.85;83.63;;;;;;;;;;5067259;28;20588;-73
2022/11/14 13:52:48;;;;;;;155.88;113.82;;;;;;;;;;5002745;28;20038;-73
2022/11/14 13:55:21;;;;;;;103.10;79.60;;;;;;;;;;5004767;28;20037;-72
2022/11/14 13:58:06;;;;;;;119.72;95.43;;;;;;;;;;5003959;28;20047;-75
2022/11/14 14:00:53;;;;;;;131.40;106.47;;;;;;;;;;5002728;28;20369;-71
2022/11/14 14:03:26;;;;;;;78.13;58.35;;;;;;;;;;5009881;28;20055;-72
2022/11/14 14:06:20;;;;;;;94.65;73.82;;;;;;;;;;5012587;28;20033;-72
2022/11/14 14:08:46;;;;;;;69.82;55.25;;;;;;;;;;4966807;28;20030;-72
2022/11/14 14:11:31;;;;;;;91.68;69.55;;;;;;;;;;4972830;28;20088;-72
2022/11/14 14:13:57;;;;;;;68.88;50.30;;;;;;;;;;4976662;28;20129;-72
2022/11/14 14:16:34;;;;;;;92.30;70.35;;;;;;;;;;4976133;28;20402;-74
2022/11/14 14:19:07;;;;;;;84.90;68.28;;;;;;;;;;4958082;28;20421;-76
2022/11/14 14:21:47;;;;;;;61.67;49.58;;;;;;;;;;4970794;28;20041;-72
2022/11/14 14:24:12;;;;;;;60.50;48.60;;;;;;;;;;4956986;28;20362;-73
2022/11/14 14:26:54;;;;;;;81.65;63.17;;;;;;;;;;4966686;28;20617;-74
2022/11/14 14:29:29;;;;;;;81.30;59.60;;;;;;;;;;4980842;28;20042;-73